createdAt,value
2023-02-05T00:02:19.556Z,0.90
2023-02-05T00:07:23.193Z,0.73
2023-02-05T00:12:28.223Z,0.90
2023-02-05T00:17:32.087Z,0.90
2023-02-05T00:22:37.506Z,0.90
2023-02-05T00:27:45.001Z,0.70
2023-02-05T00:32:48.659Z,0.90
2023-02-05T00:37:52.783Z,0.80
2023-02-05T00:42:57.934Z,0.90
2023-02-05T00:48:01.384Z,0.83
2023-02-05T00:53:04.966Z,0.73
2023-02-05T00:58:09.814Z,0.80
2023-02-05T01:03:13.534Z,0.80
2023-02-05T01:08:17.876Z,0.80
2023-02-05T01:13:23.043Z,0.83
2023-02-05T01:18:26.695Z,0.67
2023-02-05T01:23:30.215Z,0.80
2023-02-05T01:28:34.957Z,0.80
2023-02-05T01:33:38.998Z,0.80
2023-02-05T01:38:42.455Z,0.80
2023-02-05T01:44:09.708Z,0.70
2023-02-05T01:49:19.751Z,0.83
2023-02-05T01:54:26.472Z,0.70
2023-02-05T01:59:35.290Z,0.70
2023-02-05T02:04:44.127Z,1.20
2023-02-05T02:09:49.769Z,0.90
2023-02-05T02:14:57.691Z,0.90
2023-02-05T02:20:04.770Z,0.87
2023-02-05T02:25:40.605Z,0.80
2023-02-05T02:30:51.987Z,0.67
2023-02-05T02:36:05.292Z,0.70
2023-02-05T02:41:14.478Z,0.70
2023-02-05T02:46:23.972Z,0.73
2023-02-05T02:51:29.062Z,0.80
2023-02-05T02:56:40.666Z,0.60
2023-02-05T03:01:53.724Z,0.70
2023-02-05T03:07:06.730Z,0.70
2023-02-05T03:12:10.800Z,0.70
2023-02-05T03:17:30.012Z,0.80
2023-02-05T03:22:46.569Z,0.60
2023-02-05T03:27:53.123Z,0.70
2023-02-05T03:33:12.763Z,0.80
2023-02-05T03:38:34.388Z,1.10
2023-02-05T03:43:48.341Z,0.80
2023-02-05T03:49:05.778Z,0.97
2023-02-05T03:54:15.813Z,0.90
2023-02-05T03:59:20.900Z,0.80
2023-02-05T04:04:26.525Z,0.80
2023-02-05T04:09:34.091Z,0.83
2023-02-05T04:14:37.717Z,0.87
2023-02-05T04:19:43.365Z,0.70
2023-02-05T04:24:49.385Z,0.70
2023-02-05T04:29:54.096Z,0.83
2023-02-05T04:34:59.467Z,0.93
2023-02-05T04:40:03.331Z,0.70
2023-02-05T04:45:07.419Z,0.73
2023-02-05T04:50:12.509Z,1.10
2023-02-05T04:55:16.499Z,1.00
2023-02-05T05:00:20.722Z,0.73
2023-02-05T05:05:28.143Z,0.80
2023-02-05T05:10:32.035Z,0.50
2023-02-05T05:15:36.867Z,0.70
2023-02-05T05:20:42.745Z,0.70
2023-02-05T05:25:48.038Z,0.83
2023-02-05T05:30:51.733Z,1.20
2023-02-05T05:35:59.537Z,0.80
2023-02-05T05:41:20.995Z,1.00
2023-02-05T05:46:29.012Z,0.83
2023-02-05T05:51:34.051Z,1.80
2023-02-05T05:56:38.387Z,1.00
2023-02-05T06:01:41.921Z,0.70
2023-02-05T06:06:47.186Z,0.90
2023-02-05T06:11:50.871Z,0.90
2023-02-05T06:16:55.973Z,0.80
2023-02-05T06:22:03.779Z,0.90
2023-02-05T06:27:07.360Z,0.80
2023-02-05T06:32:11.888Z,0.70
2023-02-05T06:37:16.800Z,0.80
2023-02-05T06:42:20.710Z,0.70
2023-02-05T06:47:24.494Z,0.87
2023-02-05T06:52:29.623Z,0.80
2023-02-05T06:57:33.688Z,0.73
2023-02-05T07:02:37.464Z,0.93
2023-02-05T07:07:42.950Z,0.80
2023-02-05T07:12:46.732Z,0.70
2023-02-05T07:17:50.922Z,0.70
2023-02-05T07:22:58.477Z,0.80
2023-02-05T07:28:02.092Z,0.90
2023-02-05T07:33:06.895Z,0.90
2023-02-05T07:38:12.145Z,1.00
2023-02-05T07:43:15.609Z,1.03
2023-02-05T07:48:19.130Z,0.90
2023-02-05T07:53:24.064Z,0.70
2023-02-05T07:58:27.655Z,0.97
2023-02-05T08:03:31.350Z,0.90
2023-02-05T08:08:36.903Z,0.80
2023-02-05T08:13:40.435Z,0.70
2023-02-05T08:18:44.489Z,0.80
2023-02-05T08:23:49.827Z,0.73
2023-02-05T08:28:53.736Z,0.70
2023-02-05T08:34:00.111Z,0.70
2023-02-05T08:39:14.680Z,0.77
2023-02-05T08:44:18.206Z,0.90
2023-02-05T08:49:21.918Z,0.60
2023-02-05T08:54:27.371Z,1.00
2023-02-05T08:59:31.195Z,0.80
2023-02-05T09:04:40.002Z,0.80
2023-02-05T09:09:45.085Z,0.90
2023-02-05T09:14:48.476Z,0.70
2023-02-05T09:19:51.951Z,0.67
2023-02-05T09:24:56.909Z,1.10
2023-02-05T09:30:00.363Z,0.90
2023-02-05T09:35:03.910Z,0.50
2023-02-05T09:40:21.457Z,0.70
2023-02-05T09:45:38.506Z,0.90
2023-02-05T09:50:43.744Z,1.10
2023-02-05T09:55:49.525Z,0.97
2023-02-05T10:00:58.121Z,0.80
2023-02-05T10:06:16.021Z,0.70
2023-02-05T10:11:32.792Z,0.80
2023-02-05T10:17:02.148Z,0.83
2023-02-05T10:22:15.235Z,0.70
2023-02-05T10:27:22.818Z,0.70
2023-02-05T10:32:30.744Z,0.80
2023-02-05T10:37:44.269Z,0.70
2023-02-05T10:42:52.758Z,1.10
2023-02-05T10:48:24.713Z,0.80
2023-02-05T10:53:29.479Z,0.63
2023-02-05T10:58:44.592Z,0.63
2023-02-05T11:03:55.813Z,0.90
2023-02-05T11:08:59.672Z,0.53
2023-02-05T11:14:08.545Z,0.70
2023-02-05T11:19:21.884Z,0.70
2023-02-05T11:24:29.468Z,0.73
2023-02-05T11:29:34.328Z,0.73
2023-02-05T11:34:38.422Z,0.77
2023-02-05T11:39:42.558Z,0.70
2023-02-05T11:44:53.741Z,0.80
2023-02-05T11:49:58.336Z,0.90
2023-02-05T11:55:02.055Z,0.73
2023-02-05T12:00:24.342Z,0.70
2023-02-05T12:05:32.756Z,0.60
2023-02-05T12:10:43.479Z,0.80
2023-02-05T12:16:01.092Z,0.80
2023-02-05T12:21:15.601Z,0.80
2023-02-05T12:26:35.239Z,0.90
2023-02-05T12:31:53.656Z,0.80
2023-02-05T12:37:19.517Z,1.40
2023-02-05T12:42:33.257Z,1.00
2023-02-05T12:47:51.928Z,0.90
2023-02-05T12:53:09.415Z,0.73
2023-02-05T12:58:16.583Z,0.83
2023-02-05T13:03:28.497Z,0.80
2023-02-05T13:08:42.787Z,0.73
2023-02-05T13:13:55.221Z,1.00
2023-02-05T13:19:05.127Z,0.90
2023-02-05T13:24:43.002Z,1.10
2023-02-05T13:29:55.088Z,1.13
2023-02-05T13:35:12.189Z,0.90
2023-02-05T13:40:48.414Z,0.90
2023-02-05T13:46:16.384Z,0.70
2023-02-05T13:51:40.557Z,0.90
2023-02-05T13:57:02.446Z,1.00
2023-02-05T14:02:31.935Z,0.90
2023-02-05T14:07:45.217Z,1.20
2023-02-05T14:12:48.993Z,1.20
2023-02-05T14:17:57.408Z,1.10
2023-02-05T14:23:05.739Z,1.10
2023-02-05T14:28:35.755Z,1.13
2023-02-05T14:33:46.276Z,1.00
2023-02-05T14:38:58.045Z,1.23
2023-02-05T14:44:07.266Z,1.27
2023-02-05T14:49:25.934Z,1.10
2023-02-05T14:54:35.700Z,1.50
2023-02-05T14:59:44.882Z,1.30
2023-02-05T15:04:54.012Z,1.40
2023-02-05T15:10:03.738Z,1.20
2023-02-05T15:15:33.816Z,1.50
2023-02-05T15:20:42.487Z,1.60
2023-02-05T15:25:57.351Z,1.40
2023-02-05T15:31:23.224Z,1.37
2023-02-05T15:36:34.169Z,1.17
2023-02-05T15:41:43.762Z,1.40
2023-02-05T15:46:50.523Z,1.10
2023-02-05T15:51:56.156Z,1.50
2023-02-05T15:57:02.674Z,1.90
2023-02-05T16:02:19.210Z,1.60
2023-02-05T16:07:26.592Z,1.90
2023-02-05T16:12:34.636Z,1.27
2023-02-05T16:17:44.337Z,1.73
2023-02-05T16:22:56.320Z,1.30
2023-02-05T16:28:07.378Z,1.67
2023-02-05T16:33:23.864Z,1.80
2023-02-05T16:38:29.648Z,1.90
2023-02-05T16:43:40.266Z,1.80
2023-02-05T16:48:52.721Z,1.80
2023-02-05T16:53:57.860Z,1.97
2023-02-05T16:59:07.170Z,1.80
2023-02-05T17:04:27.323Z,1.67
2023-02-05T17:09:35.252Z,1.80
2023-02-05T17:14:41.637Z,1.97
2023-02-05T17:20:02.755Z,1.97
2023-02-05T17:25:08.370Z,2.10
2023-02-05T17:30:21.618Z,1.83
2023-02-05T17:35:34.102Z,2.07
2023-02-05T17:40:39.069Z,2.00
2023-02-05T17:45:48.940Z,2.00
2023-02-05T17:50:59.699Z,2.27
2023-02-05T17:56:08.435Z,1.60
2023-02-05T18:01:14.777Z,2.00
2023-02-05T18:06:21.714Z,2.07
2023-02-05T18:11:27.443Z,1.70
2023-02-05T18:16:34.209Z,2.57
2023-02-05T18:21:40.732Z,1.90
2023-02-05T18:26:44.783Z,2.43
2023-02-05T18:31:51.299Z,1.70
2023-02-05T18:37:01.033Z,2.23
2023-02-05T18:42:06.053Z,2.13
2023-02-05T18:47:12.960Z,2.60
2023-02-05T18:52:19.577Z,2.60
2023-02-05T18:57:27.662Z,2.57
2023-02-05T19:02:36.939Z,2.30
2023-02-05T19:07:48.319Z,2.87
2023-02-05T19:12:53.287Z,2.27
2023-02-05T19:18:00.947Z,2.33
2023-02-05T19:23:07.125Z,1.93
2023-02-05T19:28:12.963Z,2.37
2023-02-05T19:33:19.087Z,2.63
2023-02-05T19:38:33.246Z,1.63
2023-02-05T19:43:38.665Z,2.67
2023-02-05T19:48:45.720Z,2.43
2023-02-05T19:53:51.424Z,2.70
2023-02-05T19:58:57.840Z,2.43
2023-02-05T20:04:09.781Z,2.30
2023-02-05T20:09:20.181Z,2.73
2023-02-05T20:14:26.942Z,2.93
2023-02-05T20:19:38.950Z,3.17
2023-02-05T20:24:43.669Z,3.17
2023-02-05T20:30:06.848Z,2.33
2023-02-05T20:35:18.753Z,2.87
2023-02-05T20:40:24.239Z,3.13
2023-02-05T20:45:32.889Z,2.90
2023-02-05T20:50:40.558Z,3.03
2023-02-05T20:55:45.144Z,3.10
2023-02-05T21:00:50.946Z,2.80
2023-02-05T21:06:01.470Z,3.17
2023-02-05T21:11:06.132Z,3.33
2023-02-05T21:16:11.443Z,3.13
2023-02-05T21:21:18.812Z,3.33
2023-02-05T21:26:25.597Z,2.80
2023-02-05T21:31:34.309Z,3.00
2023-02-05T21:36:40.730Z,2.93
2023-02-05T21:41:46.017Z,3.17
2023-02-05T21:46:50.002Z,3.40
2023-02-05T21:51:54.954Z,2.90
2023-02-05T21:56:58.697Z,2.83
2023-02-05T22:02:02.320Z,3.00
2023-02-05T22:07:07.353Z,3.40
2023-02-05T22:12:10.904Z,3.00
2023-02-05T22:17:16.963Z,3.57
2023-02-05T22:22:22.504Z,3.30
2023-02-05T22:27:27.231Z,2.93
2023-02-05T22:32:31.631Z,2.97
2023-02-05T22:37:36.588Z,3.10
2023-02-05T22:42:40.324Z,3.00
2023-02-05T22:47:43.867Z,3.20
2023-02-05T22:52:48.644Z,3.10
2023-02-05T22:57:52.108Z,3.27
2023-02-05T23:02:58.174Z,3.23
2023-02-05T23:08:03.103Z,3.10
2023-02-05T23:13:07.160Z,2.70
2023-02-05T23:18:10.676Z,2.90
2023-02-05T23:23:15.619Z,2.80
2023-02-05T23:28:19.785Z,3.23
2023-02-05T23:33:23.283Z,2.77
2023-02-05T23:38:28.398Z,2.80
2023-02-05T23:43:33.605Z,3.10
2023-02-05T23:48:37.278Z,2.57
2023-02-05T23:53:42.171Z,2.73
2023-02-05T23:58:45.802Z,2.77
